sensor_id;sensor_type;location;lat;lon;timestamp;P1;durP1;ratioP1;P2;durP2;ratioP2
16979;SDS011;42288;52.182;21.156;2022-08-26T00:00:39;8.70;;;4.50;;
16979;SDS011;42288;52.182;21.156;2022-08-26T00:03:04;8.60;;;4.93;;
16979;SDS011;42288;52.182;21.156;2022-08-26T00:05:30;10.60;;;4.70;;
16979;SDS011;42288;52.182;21.156;2022-08-26T00:07:55;7.83;;;4.80;;
16979;SDS011;42288;52.182;21.156;2022-08-26T00:10:21;8.17;;;4.47;;
16979;SDS011;42288;52.182;21.156;2022-08-26T00:12:47;9.10;;;4.10;;
16979;SDS011;42288;52.182;21.156;2022-08-26T00:15:14;10.50;;;4.57;;
16979;SDS011;42288;52.182;21.156;2022-08-26T00:17:42;7.00;;;4.27;;
16979;SDS011;42288;52.182;21.156;2022-08-26T00:20:08;8.03;;;4.60;;
16979;SDS011;42288;52.182;21.156;2022-08-26T00:22:34;10.17;;;4.63;;
16979;SDS011;42288;52.182;21.156;2022-08-26T00:25:00;8.10;;;4.17;;
16979;SDS011;42288;52.182;21.156;2022-08-26T00:27:25;9.23;;;4.47;;
16979;SDS011;42288;52.182;21.156;2022-08-26T00:29:51;9.37;;;3.97;;
16979;SDS011;42288;52.182;21.156;2022-08-26T00:32:16;6.47;;;3.90;;
16979;SDS011;42288;52.182;21.156;2022-08-26T00:34:42;8.87;;;4.40;;
16979;SDS011;42288;52.182;21.156;2022-08-26T00:37:07;9.07;;;4.50;;
16979;SDS011;42288;52.182;21.156;2022-08-26T00:39:34;8.57;;;4.70;;
16979;SDS011;42288;52.182;21.156;2022-08-26T00:41:59;15.47;;;4.67;;
16979;SDS011;42288;52.182;21.156;2022-08-26T00:44:25;11.03;;;4.67;;
16979;SDS011;42288;52.182;21.156;2022-08-26T00:46:52;11.93;;;4.40;;
16979;SDS011;42288;52.182;21.156;2022-08-26T00:49:43;11.27;;;4.33;;
16979;SDS011;42288;52.182;21.156;2022-08-26T00:52:11;12.30;;;4.30;;
16979;SDS011;42288;52.182;21.156;2022-08-26T00:54:41;12.93;;;4.83;;
16979;SDS011;42288;52.182;21.156;2022-08-26T00:57:11;10.23;;;4.67;;
16979;SDS011;42288;52.182;21.156;2022-08-26T00:59:40;10.73;;;5.00;;
16979;SDS011;42288;52.182;21.156;2022-08-26T01:02:07;14.80;;;4.70;;
16979;SDS011;42288;52.182;21.156;2022-08-26T01:04:33;8.77;;;4.60;;
16979;SDS011;42288;52.182;21.156;2022-08-26T01:07:00;8.77;;;4.50;;
16979;SDS011;42288;52.182;21.156;2022-08-26T01:09:27;14.93;;;5.17;;
16979;SDS011;42288;52.182;21.156;2022-08-26T01:11:54;10.30;;;4.50;;
16979;SDS011;42288;52.182;21.156;2022-08-26T01:14:21;13.23;;;4.73;;
16979;SDS011;42288;52.182;21.156;2022-08-26T01:16:50;13.70;;;4.73;;
16979;SDS011;42288;52.182;21.156;2022-08-26T01:19:26;8.30;;;4.57;;
16979;SDS011;42288;52.182;21.156;2022-08-26T01:22:01;10.83;;;4.87;;
16979;SDS011;42288;52.182;21.156;2022-08-26T01:24:32;14.40;;;4.13;;
16979;SDS011;42288;52.182;21.156;2022-08-26T01:27:01;16.77;;;4.90;;
16979;SDS011;42288;52.182;21.156;2022-08-26T01:29:29;8.53;;;4.47;;
16979;SDS011;42288;52.182;21.156;2022-08-26T01:31:56;10.50;;;4.87;;
16979;SDS011;42288;52.182;21.156;2022-08-26T01:34:29;8.33;;;5.07;;
16979;SDS011;42288;52.182;21.156;2022-08-26T01:37:06;9.40;;;4.63;;
16979;SDS011;42288;52.182;21.156;2022-08-26T01:39:36;10.50;;;4.23;;
16979;SDS011;42288;52.182;21.156;2022-08-26T01:42:02;13.40;;;4.70;;
16979;SDS011;42288;52.182;21.156;2022-08-26T01:44:30;9.13;;;4.40;;
16979;SDS011;42288;52.182;21.156;2022-08-26T01:47:00;8.70;;;4.30;;
16979;SDS011;42288;52.182;21.156;2022-08-26T01:49:27;9.57;;;4.60;;
16979;SDS011;42288;52.182;21.156;2022-08-26T01:51:54;6.60;;;4.43;;
16979;SDS011;42288;52.182;21.156;2022-08-26T01:54:21;9.23;;;4.80;;
16979;SDS011;42288;52.182;21.156;2022-08-26T01:56:48;11.03;;;5.23;;
16979;SDS011;42288;52.182;21.156;2022-08-26T01:59:15;10.47;;;4.27;;
16979;SDS011;42288;52.182;21.156;2022-08-26T02:01:42;16.07;;;5.80;;
16979;SDS011;42288;52.182;21.156;2022-08-26T02:04:09;8.10;;;4.50;;
16979;SDS011;42288;52.182;21.156;2022-08-26T02:06:44;11.10;;;5.07;;
16979;SDS011;42288;52.182;21.156;2022-08-26T02:09:11;8.27;;;4.73;;
16979;SDS011;42288;52.182;21.156;2022-08-26T02:11:37;8.67;;;4.80;;
16979;SDS011;42288;52.182;21.156;2022-08-26T02:14:06;7.57;;;4.40;;
16979;SDS011;42288;52.182;21.156;2022-08-26T02:16:36;9.77;;;4.67;;
16979;SDS011;42288;52.182;21.156;2022-08-26T02:19:05;10.23;;;4.73;;
16979;SDS011;42288;52.182;21.156;2022-08-26T02:21:36;11.07;;;5.10;;
16979;SDS011;42288;52.182;21.156;2022-08-26T02:24:09;9.23;;;4.87;;
16979;SDS011;42288;52.182;21.156;2022-08-26T02:26:36;9.30;;;4.50;;
16979;SDS011;42288;52.182;21.156;2022-08-26T02:29:10;10.10;;;4.37;;
16979;SDS011;42288;52.182;21.156;2022-08-26T02:31:43;11.17;;;4.87;;
16979;SDS011;42288;52.182;21.156;2022-08-26T02:34:13;11.37;;;4.60;;
16979;SDS011;42288;52.182;21.156;2022-08-26T02:36:40;8.73;;;4.47;;
16979;SDS011;42288;52.182;21.156;2022-08-26T02:39:07;10.77;;;4.80;;
16979;SDS011;42288;52.182;21.156;2022-08-26T02:41:33;9.40;;;4.47;;
16979;SDS011;42288;52.182;21.156;2022-08-26T02:43:59;10.80;;;4.60;;
16979;SDS011;42288;52.182;21.156;2022-08-26T02:46:25;10.60;;;4.50;;
16979;SDS011;42288;52.182;21.156;2022-08-26T02:48:50;9.43;;;4.80;;
16979;SDS011;42288;52.182;21.156;2022-08-26T02:51:16;8.97;;;4.50;;
16979;SDS011;42288;52.182;21.156;2022-08-26T02:53:41;9.17;;;4.40;;
16979;SDS011;42288;52.182;21.156;2022-08-26T02:56:07;9.53;;;4.60;;
16979;SDS011;42288;52.182;21.156;2022-08-26T02:58:33;8.33;;;4.50;;
16979;SDS011;42288;52.182;21.156;2022-08-26T03:00:59;9.17;;;4.37;;
16979;SDS011;42288;52.182;21.156;2022-08-26T03:03:24;8.67;;;5.10;;
16979;SDS011;42288;52.182;21.156;2022-08-26T03:05:51;6.53;;;4.10;;
16979;SDS011;42288;52.182;21.156;2022-08-26T03:08:17;10.93;;;4.73;;
16979;SDS011;42288;52.182;21.156;2022-08-26T03:10:43;7.83;;;4.57;;
16979;SDS011;42288;52.182;21.156;2022-08-26T03:13:10;10.63;;;4.70;;
16979;SDS011;42288;52.182;21.156;2022-08-26T03:15:35;7.93;;;4.50;;
16979;SDS011;42288;52.182;21.156;2022-08-26T03:18:01;10.17;;;4.50;;
16979;SDS011;42288;52.182;21.156;2022-08-26T03:20:26;7.20;;;4.50;;
16979;SDS011;42288;52.182;21.156;2022-08-26T03:22:52;10.13;;;4.23;;
16979;SDS011;42288;52.182;21.156;2022-08-26T03:25:19;10.80;;;4.97;;
16979;SDS011;42288;52.182;21.156;2022-08-26T03:27:46;8.67;;;4.67;;
16979;SDS011;42288;52.182;21.156;2022-08-26T03:30:12;8.77;;;4.77;;
16979;SDS011;42288;52.182;21.156;2022-08-26T03:32:56;12.33;;;4.33;;
16979;SDS011;42288;52.182;21.156;2022-08-26T03:35:23;7.60;;;4.70;;
16979;SDS011;42288;52.182;21.156;2022-08-26T03:37:49;9.27;;;4.97;;
16979;SDS011;42288;52.182;21.156;2022-08-26T03:40:16;8.80;;;4.90;;
16979;SDS011;42288;52.182;21.156;2022-08-26T03:42:42;9.17;;;5.00;;
16979;SDS011;42288;52.182;21.156;2022-08-26T03:45:10;12.33;;;5.40;;
16979;SDS011;42288;52.182;21.156;2022-08-26T03:47:37;11.70;;;4.67;;
16979;SDS011;42288;52.182;21.156;2022-08-26T03:50:04;9.67;;;4.93;;
16979;SDS011;42288;52.182;21.156;2022-08-26T03:52:33;8.37;;;4.43;;
16979;SDS011;42288;52.182;21.156;2022-08-26T03:54:58;12.77;;;5.33;;
16979;SDS011;42288;52.182;21.156;2022-08-26T03:57:24;9.30;;;4.70;;
16979;SDS011;42288;52.182;21.156;2022-08-26T03:59:50;11.93;;;4.20;;
16979;SDS011;42288;52.182;21.156;2022-08-26T04:02:16;9.07;;;4.87;;
16979;SDS011;42288;52.182;21.156;2022-08-26T04:04:41;11.37;;;5.43;;
16979;SDS011;42288;52.182;21.156;2022-08-26T04:07:07;9.87;;;4.80;;
16979;SDS011;42288;52.182;21.156;2022-08-26T04:09:33;6.97;;;4.27;;
16979;SDS011;42288;52.182;21.156;2022-08-26T04:11:58;15.17;;;5.07;;
16979;SDS011;42288;52.182;21.156;2022-08-26T04:14:25;10.37;;;5.10;;
16979;SDS011;42288;52.182;21.156;2022-08-26T04:16:52;8.67;;;5.23;;
16979;SDS011;42288;52.182;21.156;2022-08-26T04:19:19;14.17;;;6.20;;
16979;SDS011;42288;52.182;21.156;2022-08-26T04:21:45;9.20;;;5.53;;
16979;SDS011;42288;52.182;21.156;2022-08-26T04:24:12;9.17;;;5.60;;
16979;SDS011;42288;52.182;21.156;2022-08-26T04:26:40;13.00;;;5.83;;
16979;SDS011;42288;52.182;21.156;2022-08-26T04:29:09;10.47;;;4.83;;
16979;SDS011;42288;52.182;21.156;2022-08-26T04:31:40;11.40;;;5.47;;
16979;SDS011;42288;52.182;21.156;2022-08-26T04:34:06;9.10;;;4.73;;
16979;SDS011;42288;52.182;21.156;2022-08-26T04:36:32;9.53;;;5.37;;
16979;SDS011;42288;52.182;21.156;2022-08-26T04:38:58;14.70;;;5.23;;
16979;SDS011;42288;52.182;21.156;2022-08-26T04:41:26;10.43;;;5.50;;
16979;SDS011;42288;52.182;21.156;2022-08-26T04:43:52;11.37;;;5.10;;
16979;SDS011;42288;52.182;21.156;2022-08-26T04:46:19;11.27;;;5.77;;
16979;SDS011;42288;52.182;21.156;2022-08-26T04:48:49;14.20;;;5.77;;
16979;SDS011;42288;52.182;21.156;2022-08-26T04:51:17;12.53;;;5.80;;
16979;SDS011;42288;52.182;21.156;2022-08-26T04:53:44;12.83;;;5.40;;
16979;SDS011;42288;52.182;21.156;2022-08-26T04:56:10;13.53;;;5.67;;
16979;SDS011;42288;52.182;21.156;2022-08-26T04:58:36;14.43;;;6.13;;
16979;SDS011;42288;52.182;21.156;2022-08-26T05:01:02;16.80;;;5.77;;
16979;SDS011;42288;52.182;21.156;2022-08-26T05:03:28;9.53;;;5.60;;
16979;SDS011;42288;52.182;21.156;2022-08-26T05:05:54;12.70;;;6.00;;
16979;SDS011;42288;52.182;21.156;2022-08-26T05:08:20;12.33;;;5.37;;
16979;SDS011;42288;52.182;21.156;2022-08-26T05:10:51;10.93;;;5.30;;
16979;SDS011;42288;52.182;21.156;2022-08-26T05:13:22;14.00;;;5.30;;
16979;SDS011;42288;52.182;21.156;2022-08-26T05:15:50;11.40;;;5.63;;
16979;SDS011;42288;52.182;21.156;2022-08-26T05:18:17;9.50;;;5.20;;
16979;SDS011;42288;52.182;21.156;2022-08-26T05:20:46;14.43;;;5.67;;
16979;SDS011;42288;52.182;21.156;2022-08-26T05:23:15;13.10;;;5.57;;
16979;SDS011;42288;52.182;21.156;2022-08-26T05:25:42;11.33;;;5.23;;
16979;SDS011;42288;52.182;21.156;2022-08-26T05:28:11;11.90;;;5.13;;
16979;SDS011;42288;52.182;21.156;2022-08-26T05:30:38;8.03;;;4.97;;
16979;SDS011;42288;52.182;21.156;2022-08-26T05:33:04;9.10;;;4.53;;
16979;SDS011;42288;52.182;21.156;2022-08-26T05:35:31;10.87;;;4.87;;
16979;SDS011;42288;52.182;21.156;2022-08-26T05:38:01;10.17;;;5.50;;
16979;SDS011;42288;52.182;21.156;2022-08-26T05:40:32;20.17;;;5.43;;
16979;SDS011;42288;52.182;21.156;2022-08-26T05:42:58;10.13;;;4.67;;
16979;SDS011;42288;52.182;21.156;2022-08-26T05:45:24;10.93;;;4.40;;
16979;SDS011;42288;52.182;21.156;2022-08-26T05:47:50;17.20;;;4.77;;
16979;SDS011;42288;52.182;21.156;2022-08-26T05:50:16;9.53;;;5.03;;
16979;SDS011;42288;52.182;21.156;2022-08-26T05:52:46;15.73;;;5.13;;
16979;SDS011;42288;52.182;21.156;2022-08-26T05:55:12;10.73;;;4.60;;
16979;SDS011;42288;52.182;21.156;2022-08-26T05:57:37;13.17;;;4.63;;
16979;SDS011;42288;52.182;21.156;2022-08-26T06:00:04;11.20;;;5.37;;
16979;SDS011;42288;52.182;21.156;2022-08-26T06:02:30;10.27;;;4.50;;
16979;SDS011;42288;52.182;21.156;2022-08-26T06:04:55;9.83;;;4.50;;
16979;SDS011;42288;52.182;21.156;2022-08-26T06:07:21;10.40;;;5.00;;
16979;SDS011;42288;52.182;21.156;2022-08-26T06:10:06;13.27;;;4.20;;
16979;SDS011;42288;52.182;21.156;2022-08-26T06:12:35;13.77;;;4.70;;
16979;SDS011;42288;52.182;21.156;2022-08-26T06:15:01;11.67;;;4.37;;
16979;SDS011;42288;52.182;21.156;2022-08-26T06:17:27;12.00;;;4.50;;
16979;SDS011;42288;52.182;21.156;2022-08-26T06:19:53;13.60;;;4.73;;
16979;SDS011;42288;52.182;21.156;2022-08-26T06:22:19;15.87;;;4.80;;
16979;SDS011;42288;52.182;21.156;2022-08-26T06:25:03;11.40;;;4.10;;
16979;SDS011;42288;52.182;21.156;2022-08-26T06:27:48;8.10;;;4.13;;
16979;SDS011;42288;52.182;21.156;2022-08-26T06:30:13;11.97;;;4.00;;
16979;SDS011;42288;52.182;21.156;2022-08-26T06:32:39;12.50;;;4.07;;
16979;SDS011;42288;52.182;21.156;2022-08-26T06:35:04;11.67;;;4.57;;
16979;SDS011;42288;52.182;21.156;2022-08-26T06:37:30;10.87;;;4.33;;
16979;SDS011;42288;52.182;21.156;2022-08-26T06:39:56;11.33;;;4.30;;
16979;SDS011;42288;52.182;21.156;2022-08-26T06:42:21;15.83;;;4.33;;
16979;SDS011;42288;52.182;21.156;2022-08-26T06:44:47;9.33;;;4.07;;
16979;SDS011;42288;52.182;21.156;2022-08-26T06:47:12;9.77;;;4.30;;
16979;SDS011;42288;52.182;21.156;2022-08-26T06:49:38;15.07;;;5.00;;
16979;SDS011;42288;52.182;21.156;2022-08-26T06:52:03;13.45;;;4.05;;
16979;SDS011;42288;52.182;21.156;2022-08-26T06:54:29;12.70;;;4.47;;
16979;SDS011;42288;52.182;21.156;2022-08-26T06:56:55;14.50;;;4.60;;
16979;SDS011;42288;52.182;21.156;2022-08-26T06:59:21;12.80;;;4.22;;
16979;SDS011;42288;52.182;21.156;2022-08-26T07:01:47;12.32;;;4.40;;
16979;SDS011;42288;52.182;21.156;2022-08-26T07:04:14;8.73;;;4.03;;
16979;SDS011;42288;52.182;21.156;2022-08-26T07:06:40;10.77;;;4.72;;
16979;SDS011;42288;52.182;21.156;2022-08-26T07:09:07;8.82;;;4.40;;
16979;SDS011;42288;52.182;21.156;2022-08-26T07:11:34;8.60;;;4.47;;
16979;SDS011;42288;52.182;21.156;2022-08-26T07:14:02;11.90;;;4.50;;
16979;SDS011;42288;52.182;21.156;2022-08-26T07:16:28;9.18;;;4.55;;
16979;SDS011;42288;52.182;21.156;2022-08-26T07:18:54;13.98;;;4.68;;
16979;SDS011;42288;52.182;21.156;2022-08-26T07:21:21;13.00;;;4.45;;
16979;SDS011;42288;52.182;21.156;2022-08-26T07:23:47;8.38;;;3.83;;
16979;SDS011;42288;52.182;21.156;2022-08-26T07:26:15;11.43;;;4.80;;
16979;SDS011;42288;52.182;21.156;2022-08-26T07:28:43;17.20;;;4.82;;
16979;SDS011;42288;52.182;21.156;2022-08-26T07:31:11;12.63;;;4.90;;
16979;SDS011;42288;52.182;21.156;2022-08-26T07:33:38;13.30;;;4.90;;
16979;SDS011;42288;52.182;21.156;2022-08-26T07:36:05;11.93;;;5.03;;
16979;SDS011;42288;52.182;21.156;2022-08-26T07:38:32;17.42;;;6.30;;
16979;SDS011;42288;52.182;21.156;2022-08-26T07:40:59;12.77;;;5.53;;
16979;SDS011;42288;52.182;21.156;2022-08-26T07:43:25;12.18;;;5.28;;
16979;SDS011;42288;52.182;21.156;2022-08-26T07:45:52;14.65;;;5.07;;
16979;SDS011;42288;52.182;21.156;2022-08-26T07:48:18;15.15;;;5.47;;
16979;SDS011;42288;52.182;21.156;2022-08-26T07:50:43;15.18;;;5.18;;
16979;SDS011;42288;52.182;21.156;2022-08-26T07:53:10;11.32;;;4.80;;
16979;SDS011;42288;52.182;21.156;2022-08-26T07:55:36;11.00;;;4.38;;
16979;SDS011;42288;52.182;21.156;2022-08-26T07:58:02;19.42;;;5.07;;
16979;SDS011;42288;52.182;21.156;2022-08-26T08:00:29;14.88;;;4.43;;
16979;SDS011;42288;52.182;21.156;2022-08-26T08:02:56;16.40;;;4.78;;
16979;SDS011;42288;52.182;21.156;2022-08-26T08:05:23;13.43;;;4.32;;
16979;SDS011;42288;52.182;21.156;2022-08-26T08:07:49;12.93;;;5.22;;
16979;SDS011;42288;52.182;21.156;2022-08-26T08:10:18;21.58;;;5.20;;
16979;SDS011;42288;52.182;21.156;2022-08-26T08:12:47;18.88;;;5.07;;
16979;SDS011;42288;52.182;21.156;2022-08-26T08:15:15;14.45;;;5.05;;
16979;SDS011;42288;52.182;21.156;2022-08-26T08:17:42;15.85;;;4.40;;
16979;SDS011;42288;52.182;21.156;2022-08-26T08:20:08;15.23;;;5.25;;
16979;SDS011;42288;52.182;21.156;2022-08-26T08:22:34;9.68;;;4.80;;
16979;SDS011;42288;52.182;21.156;2022-08-26T08:25:00;13.40;;;5.13;;
16979;SDS011;42288;52.182;21.156;2022-08-26T08:27:26;12.68;;;4.78;;
16979;SDS011;42288;52.182;21.156;2022-08-26T08:29:52;13.23;;;4.72;;
16979;SDS011;42288;52.182;21.156;2022-08-26T08:32:18;13.75;;;5.20;;
16979;SDS011;42288;52.182;21.156;2022-08-26T08:34:44;10.55;;;4.85;;
16979;SDS011;42288;52.182;21.156;2022-08-26T08:37:09;9.88;;;4.53;;
16979;SDS011;42288;52.182;21.156;2022-08-26T08:39:35;10.07;;;4.78;;
16979;SDS011;42288;52.182;21.156;2022-08-26T08:42:06;9.90;;;4.85;;
16979;SDS011;42288;52.182;21.156;2022-08-26T08:44:46;23.80;;;5.38;;
16979;SDS011;42288;52.182;21.156;2022-08-26T08:47:19;13.68;;;4.70;;
16979;SDS011;42288;52.182;21.156;2022-08-26T08:49:56;13.23;;;4.68;;
16979;SDS011;42288;52.182;21.156;2022-08-26T08:52:33;9.60;;;4.63;;
16979;SDS011;42288;52.182;21.156;2022-08-26T08:55:00;10.98;;;5.10;;
16979;SDS011;42288;52.182;21.156;2022-08-26T08:57:33;13.52;;;4.72;;
16979;SDS011;42288;52.182;21.156;2022-08-26T09:00:13;11.77;;;4.10;;
16979;SDS011;42288;52.182;21.156;2022-08-26T09:02:43;13.93;;;4.30;;
16979;SDS011;42288;52.182;21.156;2022-08-26T09:05:19;9.15;;;4.32;;
16979;SDS011;42288;52.182;21.156;2022-08-26T09:07:49;13.40;;;4.60;;
16979;SDS011;42288;52.182;21.156;2022-08-26T09:13:08;9.80;;;4.25;;
16979;SDS011;42288;52.182;21.156;2022-08-26T09:18:10;9.82;;;4.22;;
16979;SDS011;42288;52.182;21.156;2022-08-26T09:20:57;9.13;;;4.15;;
16979;SDS011;42288;52.182;21.156;2022-08-26T09:23:27;10.27;;;4.32;;
16979;SDS011;42288;52.182;21.156;2022-08-26T09:25:57;11.80;;;4.32;;
16979;SDS011;42288;52.182;21.156;2022-08-26T09:28:27;21.98;;;5.05;;
16979;SDS011;42288;52.182;21.156;2022-08-26T09:31:13;14.15;;;4.57;;
16979;SDS011;42288;52.182;21.156;2022-08-26T09:33:46;18.27;;;4.32;;
16979;SDS011;42288;52.182;21.156;2022-08-26T09:36:22;11.02;;;4.60;;
16979;SDS011;42288;52.182;21.156;2022-08-26T09:39:02;15.70;;;4.88;;
16979;SDS011;42288;52.182;21.156;2022-08-26T09:41:29;10.15;;;3.75;;
16979;SDS011;42288;52.182;21.156;2022-08-26T09:44:13;9.85;;;4.10;;
16979;SDS011;42288;52.182;21.156;2022-08-26T09:46:41;9.25;;;4.30;;
16979;SDS011;42288;52.182;21.156;2022-08-26T09:54:38;9.55;;;3.33;;
16979;SDS011;42288;52.182;21.156;2022-08-26T09:57:24;16.30;;;3.65;;
16979;SDS011;42288;52.182;21.156;2022-08-26T09:59:51;13.23;;;4.07;;
16979;SDS011;42288;52.182;21.156;2022-08-26T10:04:52;11.27;;;4.10;;
16979;SDS011;42288;52.182;21.156;2022-08-26T10:07:38;9.43;;;4.22;;
16979;SDS011;42288;52.182;21.156;2022-08-26T10:10:10;8.48;;;4.57;;
16979;SDS011;42288;52.182;21.156;2022-08-26T10:13:03;9.52;;;4.47;;
16979;SDS011;42288;52.182;21.156;2022-08-26T10:15:38;7.78;;;4.38;;
16979;SDS011;42288;52.182;21.156;2022-08-26T10:18:17;11.55;;;4.32;;
16979;SDS011;42288;52.182;21.156;2022-08-26T10:20:54;11.35;;;4.70;;
16979;SDS011;42288;52.182;21.156;2022-08-26T10:23:35;11.50;;;4.70;;
16979;SDS011;42288;52.182;21.156;2022-08-26T10:28:51;11.20;;;4.80;;
16979;SDS011;42288;52.182;21.156;2022-08-26T10:34:24;12.45;;;4.82;;
16979;SDS011;42288;52.182;21.156;2022-08-26T10:36:57;7.22;;;4.63;;
16979;SDS011;42288;52.182;21.156;2022-08-26T10:42:18;14.52;;;5.28;;
16979;SDS011;42288;52.182;21.156;2022-08-26T10:44:50;8.43;;;4.68;;
16979;SDS011;42288;52.182;21.156;2022-08-26T10:47:33;12.45;;;4.70;;
16979;SDS011;42288;52.182;21.156;2022-08-26T10:50:05;6.47;;;4.95;;
16979;SDS011;42288;52.182;21.156;2022-08-26T10:55:26;11.63;;;5.05;;
16979;SDS011;42288;52.182;21.156;2022-08-26T10:58:18;10.38;;;4.78;;
16979;SDS011;42288;52.182;21.156;2022-08-26T11:07:27;10.48;;;4.30;;
16979;SDS011;42288;52.182;21.156;2022-08-26T11:10:02;6.00;;;4.18;;
16979;SDS011;42288;52.182;21.156;2022-08-26T11:15:01;5.93;;;4.57;;
16979;SDS011;42288;52.182;21.156;2022-08-26T11:20:39;11.30;;;4.30;;
16979;SDS011;42288;52.182;21.156;2022-08-26T11:28:31;5.93;;;3.90;;
16979;SDS011;42288;52.182;21.156;2022-08-26T11:30:59;9.68;;;3.95;;
16979;SDS011;42288;52.182;21.156;2022-08-26T11:33:43;14.60;;;4.57;;
16979;SDS011;42288;52.182;21.156;2022-08-26T11:36:09;8.23;;;4.10;;
16979;SDS011;42288;52.182;21.156;2022-08-26T11:38:52;9.30;;;4.20;;
16979;SDS011;42288;52.182;21.156;2022-08-26T11:41:19;14.02;;;4.50;;
16979;SDS011;42288;52.182;21.156;2022-08-26T11:43:46;10.32;;;4.65;;
16979;SDS011;42288;52.182;21.156;2022-08-26T11:46:21;7.05;;;4.35;;
16979;SDS011;42288;52.182;21.156;2022-08-26T11:48:49;10.55;;;4.35;;
16979;SDS011;42288;52.182;21.156;2022-08-26T11:51:23;11.57;;;4.30;;
16979;SDS011;42288;52.182;21.156;2022-08-26T11:53:49;5.97;;;4.28;;
16979;SDS011;42288;52.182;21.156;2022-08-26T11:56:16;7.55;;;5.03;;
16979;SDS011;42288;52.182;21.156;2022-08-26T11:58:54;10.15;;;4.57;;
16979;SDS011;42288;52.182;21.156;2022-08-26T12:01:31;10.38;;;4.82;;
16979;SDS011;42288;52.182;21.156;2022-08-26T12:04:05;7.55;;;4.50;;
16979;SDS011;42288;52.182;21.156;2022-08-26T12:06:37;10.57;;;4.57;;
16979;SDS011;42288;52.182;21.156;2022-08-26T12:09:10;10.50;;;4.80;;
16979;SDS011;42288;52.182;21.156;2022-08-26T12:11:44;10.40;;;4.55;;
16979;SDS011;42288;52.182;21.156;2022-08-26T12:16:41;10.00;;;4.18;;
16979;SDS011;42288;52.182;21.156;2022-08-26T12:19:20;10.93;;;4.82;;
16979;SDS011;42288;52.182;21.156;2022-08-26T12:21:50;6.90;;;4.38;;
16979;SDS011;42288;52.182;21.156;2022-08-26T12:24:26;9.50;;;4.43;;
16979;SDS011;42288;52.182;21.156;2022-08-26T12:27:03;14.35;;;4.38;;
16979;SDS011;42288;52.182;21.156;2022-08-26T12:29:40;8.77;;;4.57;;
16979;SDS011;42288;52.182;21.156;2022-08-26T12:32:13;9.43;;;4.25;;
16979;SDS011;42288;52.182;21.156;2022-08-26T12:34:42;10.48;;;5.07;;
16979;SDS011;42288;52.182;21.156;2022-08-26T12:37:10;12.18;;;5.03;;
16979;SDS011;42288;52.182;21.156;2022-08-26T12:39:38;12.00;;;4.57;;
16979;SDS011;42288;52.182;21.156;2022-08-26T12:42:20;12.10;;;5.50;;
16979;SDS011;42288;52.182;21.156;2022-08-26T12:44:58;16.05;;;5.13;;
16979;SDS011;42288;52.182;21.156;2022-08-26T12:47:31;8.20;;;4.72;;
16979;SDS011;42288;52.182;21.156;2022-08-26T12:50:17;10.13;;;4.82;;
16979;SDS011;42288;52.182;21.156;2022-08-26T12:52:57;8.95;;;5.22;;
16979;SDS011;42288;52.182;21.156;2022-08-26T13:00:38;14.30;;;5.75;;
16979;SDS011;42288;52.182;21.156;2022-08-26T13:08:49;7.60;;;5.50;;
16979;SDS011;42288;52.182;21.156;2022-08-26T13:11:19;13.02;;;5.95;;
16979;SDS011;42288;52.182;21.156;2022-08-26T13:13:47;11.55;;;5.97;;
16979;SDS011;42288;52.182;21.156;2022-08-26T13:16:15;7.53;;;5.18;;
16979;SDS011;42288;52.182;21.156;2022-08-26T13:18:43;15.55;;;6.32;;
16979;SDS011;42288;52.182;21.156;2022-08-26T13:21:15;10.88;;;5.28;;
16979;SDS011;42288;52.182;21.156;2022-08-26T13:23:46;10.38;;;5.40;;
16979;SDS011;42288;52.182;21.156;2022-08-26T13:26:13;10.73;;;5.75;;
16979;SDS011;42288;52.182;21.156;2022-08-26T13:28:39;10.73;;;5.38;;
16979;SDS011;42288;52.182;21.156;2022-08-26T13:31:06;14.27;;;6.10;;
16979;SDS011;42288;52.182;21.156;2022-08-26T13:33:34;11.43;;;5.57;;
16979;SDS011;42288;52.182;21.156;2022-08-26T13:36:00;11.18;;;5.85;;
16979;SDS011;42288;52.182;21.156;2022-08-26T13:38:25;8.55;;;5.70;;
16979;SDS011;42288;52.182;21.156;2022-08-26T13:40:51;13.43;;;6.35;;
16979;SDS011;42288;52.182;21.156;2022-08-26T13:43:17;10.77;;;5.55;;
16979;SDS011;42288;52.182;21.156;2022-08-26T13:45:43;9.15;;;5.95;;
16979;SDS011;42288;52.182;21.156;2022-08-26T13:48:09;10.77;;;5.55;;
16979;SDS011;42288;52.182;21.156;2022-08-26T13:50:34;12.93;;;5.90;;
16979;SDS011;42288;52.182;21.156;2022-08-26T13:53:00;9.95;;;5.43;;
16979;SDS011;42288;52.182;21.156;2022-08-26T13:55:26;11.20;;;5.57;;
16979;SDS011;42288;52.182;21.156;2022-08-26T13:57:52;8.85;;;5.47;;
16979;SDS011;42288;52.182;21.156;2022-08-26T14:00:19;10.52;;;6.00;;
16979;SDS011;42288;52.182;21.156;2022-08-26T14:02:45;14.02;;;5.75;;
16979;SDS011;42288;52.182;21.156;2022-08-26T14:05:11;11.85;;;5.60;;
16979;SDS011;42288;52.182;21.156;2022-08-26T14:07:37;11.95;;;5.85;;
16979;SDS011;42288;52.182;21.156;2022-08-26T14:10:03;12.07;;;6.30;;
16979;SDS011;42288;52.182;21.156;2022-08-26T14:12:29;14.27;;;5.80;;
16979;SDS011;42288;52.182;21.156;2022-08-26T14:14:55;11.85;;;6.32;;
16979;SDS011;42288;52.182;21.156;2022-08-26T14:17:20;11.30;;;6.70;;
16979;SDS011;42288;52.182;21.156;2022-08-26T14:19:48;9.38;;;5.20;;
16979;SDS011;42288;52.182;21.156;2022-08-26T14:22:15;8.20;;;5.55;;
16979;SDS011;42288;52.182;21.156;2022-08-26T14:24:42;15.70;;;6.07;;
16979;SDS011;42288;52.182;21.156;2022-08-26T14:27:08;13.88;;;5.85;;
16979;SDS011;42288;52.182;21.156;2022-08-26T14:29:34;10.35;;;5.80;;
16979;SDS011;42288;52.182;21.156;2022-08-26T14:32:00;10.82;;;5.88;;
16979;SDS011;42288;52.182;21.156;2022-08-26T14:34:30;8.13;;;5.43;;
16979;SDS011;42288;52.182;21.156;2022-08-26T14:36:56;12.73;;;6.38;;
16979;SDS011;42288;52.182;21.156;2022-08-26T14:39:22;11.55;;;5.43;;
16979;SDS011;42288;52.182;21.156;2022-08-26T14:41:49;13.75;;;5.68;;
16979;SDS011;42288;52.182;21.156;2022-08-26T14:44:18;7.75;;;5.80;;
16979;SDS011;42288;52.182;21.156;2022-08-26T14:46:45;10.52;;;6.95;;
16979;SDS011;42288;52.182;21.156;2022-08-26T14:49:12;9.57;;;5.78;;
16979;SDS011;42288;52.182;21.156;2022-08-26T14:51:39;10.23;;;5.80;;
16979;SDS011;42288;52.182;21.156;2022-08-26T14:54:05;9.02;;;5.70;;
16979;SDS011;42288;52.182;21.156;2022-08-26T14:56:38;11.73;;;6.03;;
16979;SDS011;42288;52.182;21.156;2022-08-26T14:59:20;12.60;;;6.20;;
16979;SDS011;42288;52.182;21.156;2022-08-26T15:01:48;10.45;;;5.65;;
16979;SDS011;42288;52.182;21.156;2022-08-26T15:04:13;7.65;;;5.57;;
16979;SDS011;42288;52.182;21.156;2022-08-26T15:06:39;11.98;;;5.45;;
16979;SDS011;42288;52.182;21.156;2022-08-26T15:09:05;6.65;;;5.18;;
16979;SDS011;42288;52.182;21.156;2022-08-26T15:11:31;11.23;;;5.90;;
16979;SDS011;42288;52.182;21.156;2022-08-26T15:13:56;7.32;;;5.40;;
16979;SDS011;42288;52.182;21.156;2022-08-26T15:16:23;9.65;;;5.28;;
16979;SDS011;42288;52.182;21.156;2022-08-26T15:18:49;9.27;;;4.95;;
16979;SDS011;42288;52.182;21.156;2022-08-26T15:21:15;9.27;;;5.32;;
16979;SDS011;42288;52.182;21.156;2022-08-26T15:23:43;12.05;;;5.68;;
16979;SDS011;42288;52.182;21.156;2022-08-26T15:26:09;9.18;;;4.75;;
16979;SDS011;42288;52.182;21.156;2022-08-26T15:28:36;15.20;;;6.03;;
16979;SDS011;42288;52.182;21.156;2022-08-26T15:31:02;13.60;;;5.40;;